Mirante do Paranapanema, Brazil
Current Conditions -  °F | °C
As of 2:00 PM on Wednesday 28 Jan 2015 (Local Time) from SBDN Reporting Station
Scattered Clouds Scattered Clouds  
Wind Chill: 86°   Ceiling: Unl
Heat Index: 89°   Visibility: 6mi
Dew Point: 68°   Wind: 6mph
Humidity: 55%   Direction: 350°N
Pressure: 29.94"   Gusts: NA
Location:  22.29°S, 51.91°W
Report Text: SBDN 281600Z 35005KT 9999 SCT030 30/20 Q1014
Loading
Personal Weather Stations






























Interactive Weather Map New forecast layout! Learn more

10-Day Weather Forecast

Advertisements
Track Severe Weather on mobile